createdAt,value
2022-12-12T00:01:21.372Z,3.90
2022-12-12T00:02:42.229Z,4.00
2022-12-12T00:04:03.690Z,4.20
2022-12-12T00:05:24.495Z,4.20
2022-12-12T00:06:45.090Z,4.30
2022-12-12T00:08:06.120Z,4.30
2022-12-12T00:09:26.986Z,4.20
2022-12-12T00:10:47.803Z,4.10
2022-12-12T00:12:09.833Z,4.00
2022-12-12T00:13:30.470Z,3.90
2022-12-12T00:14:51.100Z,3.80
2022-12-12T00:16:12.719Z,3.80
2022-12-12T00:17:33.203Z,3.70
2022-12-12T00:18:54.142Z,3.70
2022-12-12T00:20:15.063Z,3.60
2022-12-12T00:21:35.627Z,3.50
2022-12-12T00:22:56.444Z,3.70
2022-12-12T00:24:17.219Z,3.70
2022-12-12T00:25:37.827Z,3.60
2022-12-12T00:26:58.275Z,3.60
2022-12-12T00:28:20.159Z,3.50
2022-12-12T00:29:40.966Z,3.50
2022-12-12T00:31:01.671Z,3.40
2022-12-12T00:32:23.242Z,3.50
2022-12-12T00:33:44.342Z,3.40
2022-12-12T00:35:05.852Z,3.40
2022-12-12T00:36:28.810Z,3.40
2022-12-12T00:37:49.522Z,3.30
2022-12-12T00:39:15.168Z,3.40
2022-12-12T00:40:38.410Z,3.40
2022-12-12T00:41:59.047Z,3.40
2022-12-12T00:43:21.217Z,3.30
2022-12-12T00:44:41.761Z,3.30
2022-12-12T00:46:02.536Z,3.30
2022-12-12T00:47:23.218Z,3.20
2022-12-12T00:48:44.519Z,3.30
2022-12-12T00:50:06.359Z,3.20
2022-12-12T00:51:28.437Z,3.20
2022-12-12T00:52:49.026Z,3.20
2022-12-12T00:54:09.981Z,3.30
2022-12-12T00:55:30.388Z,3.20
2022-12-12T00:56:51.256Z,3.30
2022-12-12T00:58:13.677Z,3.30
2022-12-12T00:59:35.512Z,3.30
2022-12-12T01:00:59.110Z,3.20
2022-12-12T01:02:24.870Z,3.20
2022-12-12T01:03:49.186Z,3.10
2022-12-12T01:05:10.747Z,3.20
2022-12-12T01:06:31.808Z,3.20
2022-12-12T01:07:52.619Z,3.20
2022-12-12T01:09:13.094Z,3.20
2022-12-12T01:10:33.798Z,3.30
2022-12-12T01:11:54.308Z,3.20
2022-12-12T01:13:14.938Z,3.10
2022-12-12T01:14:36.745Z,3.10
2022-12-12T01:15:57.799Z,3.10
2022-12-12T01:17:18.515Z,3.10
2022-12-12T01:18:39.755Z,3.10
2022-12-12T01:20:00.344Z,3.00
2022-12-12T01:21:21.642Z,2.90
2022-12-12T01:22:42.258Z,3.00
2022-12-12T01:24:03.091Z,3.00
2022-12-12T01:25:23.704Z,3.00
2022-12-12T01:26:44.811Z,2.90
2022-12-12T01:28:05.689Z,2.90
2022-12-12T01:29:26.209Z,2.80
2022-12-12T01:30:48.512Z,2.70
2022-12-12T01:32:08.925Z,2.70
2022-12-12T01:33:30.115Z,2.70
2022-12-12T01:34:50.584Z,2.60
2022-12-12T01:36:12.082Z,2.60
2022-12-12T01:37:32.355Z,2.70
2022-12-12T01:38:54.719Z,2.70
2022-12-12T01:40:17.939Z,2.70
2022-12-12T01:41:38.509Z,2.70
2022-12-12T01:42:59.513Z,2.60
2022-12-12T01:44:41.735Z,2.60
2022-12-12T01:46:39.133Z,2.60
2022-12-12T01:48:05.016Z,2.70
2022-12-12T01:49:26.517Z,2.70
2022-12-12T01:50:47.602Z,2.60
2022-12-12T01:52:11.399Z,2.50
2022-12-12T01:53:32.116Z,2.60
2022-12-12T01:54:56.262Z,2.60
2022-12-12T01:56:19.369Z,2.60
2022-12-12T01:57:43.615Z,2.70
2022-12-12T01:59:06.133Z,2.70
2022-12-12T02:00:26.896Z,2.70
2022-12-12T02:01:49.210Z,2.70
2022-12-12T02:03:10.072Z,2.70
2022-12-12T02:04:30.877Z,2.70
2022-12-12T02:05:53.804Z,2.70
2022-12-12T02:07:14.530Z,2.70
2022-12-12T02:08:35.360Z,2.60
2022-12-12T02:09:56.025Z,2.50
2022-12-12T02:11:16.760Z,2.30
2022-12-12T02:12:37.614Z,2.30
2022-12-12T02:13:59.190Z,2.30
2022-12-12T02:15:19.643Z,2.20
2022-12-12T02:17:04.473Z,2.30
2022-12-12T02:18:28.729Z,2.20
2022-12-12T02:20:25.856Z,2.30
2022-12-12T02:21:51.407Z,2.20
2022-12-12T02:23:38.557Z,2.20
2022-12-12T02:25:20.412Z,2.20
2022-12-12T02:26:47.802Z,2.20
2022-12-12T02:28:40.242Z,2.20
2022-12-12T02:30:14.118Z,2.10
2022-12-12T02:31:40.904Z,2.00
2022-12-12T02:33:15.557Z,2.00
2022-12-12T02:34:41.210Z,2.00
2022-12-12T02:36:11.711Z,2.10
2022-12-12T02:37:38.604Z,2.00
2022-12-12T02:39:05.596Z,2.00
2022-12-12T02:40:33.999Z,2.00
2022-12-12T02:41:57.384Z,2.10
2022-12-12T02:43:22.990Z,2.10
2022-12-12T02:44:48.604Z,2.00
2022-12-12T02:46:13.592Z,2.00
2022-12-12T02:47:40.466Z,2.10
2022-12-12T02:49:03.945Z,2.10
2022-12-12T02:50:26.332Z,2.10
2022-12-12T02:51:48.059Z,2.10
2022-12-12T02:53:08.310Z,2.20
2022-12-12T02:54:28.639Z,2.10
2022-12-12T02:55:49.520Z,2.10
2022-12-12T02:57:14.629Z,2.10
2022-12-12T02:58:36.829Z,2.00
2022-12-12T02:59:59.778Z,1.90
2022-12-12T03:01:26.454Z,2.00
2022-12-12T03:03:00.680Z,2.10
2022-12-12T03:04:27.021Z,2.10
2022-12-12T03:05:55.557Z,2.10
2022-12-12T03:07:24.197Z,2.00
2022-12-12T03:08:57.368Z,2.10
2022-12-12T03:10:30.882Z,2.10
2022-12-12T03:12:01.862Z,2.10
2022-12-12T03:13:30.221Z,2.10
2022-12-12T03:14:57.092Z,2.00
2022-12-12T03:16:24.569Z,1.90
2022-12-12T03:17:49.875Z,1.90
2022-12-12T03:19:17.586Z,1.90
2022-12-12T03:20:43.091Z,1.80
2022-12-12T03:22:08.315Z,1.90
2022-12-12T03:23:32.679Z,1.80
2022-12-12T03:24:57.655Z,1.80
2022-12-12T03:26:23.743Z,1.80
2022-12-12T03:27:50.069Z,1.70
2022-12-12T03:29:13.939Z,1.70
2022-12-12T03:30:38.953Z,1.80
2022-12-12T03:32:05.715Z,1.70
2022-12-12T03:33:30.225Z,1.70
2022-12-12T03:34:56.004Z,1.80
2022-12-12T03:36:21.246Z,1.80
2022-12-12T03:37:45.718Z,1.80
2022-12-12T03:39:11.203Z,1.80
2022-12-12T03:40:36.643Z,1.80
2022-12-12T03:42:02.305Z,1.70
2022-12-12T03:43:25.351Z,1.70
2022-12-12T03:44:49.373Z,1.60
2022-12-12T03:46:15.620Z,1.60
2022-12-12T03:47:42.377Z,1.60
2022-12-12T03:49:04.504Z,1.70
2022-12-12T03:50:28.555Z,1.70
2022-12-12T03:51:52.559Z,1.70
2022-12-12T03:53:17.267Z,1.70
2022-12-12T03:54:42.101Z,1.70
2022-12-12T03:56:05.742Z,1.70
2022-12-12T03:57:28.812Z,1.60
2022-12-12T03:58:51.740Z,1.60
2022-12-12T04:00:14.112Z,1.60
2022-12-12T04:01:39.963Z,1.60
2022-12-12T04:03:06.049Z,1.60
2022-12-12T04:04:29.693Z,1.60
2022-12-12T04:05:58.026Z,1.70
2022-12-12T04:07:21.413Z,1.70
2022-12-12T04:08:42.422Z,1.70
2022-12-12T04:10:04.006Z,1.80
2022-12-12T04:11:24.566Z,1.80
2022-12-12T04:12:50.823Z,1.90
2022-12-12T04:14:19.794Z,1.90
2022-12-12T04:15:50.346Z,1.80
2022-12-12T04:17:14.715Z,1.80
2022-12-12T04:18:38.014Z,1.80
2022-12-12T04:20:03.654Z,1.80
2022-12-12T04:21:32.631Z,1.70
2022-12-12T04:22:59.254Z,1.70
2022-12-12T04:24:23.673Z,1.60
2022-12-12T04:25:57.697Z,1.60
2022-12-12T04:27:21.948Z,1.60
2022-12-12T04:28:48.825Z,1.60
2022-12-12T04:30:11.933Z,1.70
2022-12-12T04:31:34.494Z,1.70
2022-12-12T04:33:01.642Z,1.70
2022-12-12T04:34:28.353Z,1.70
2022-12-12T04:35:51.482Z,1.80
2022-12-12T04:37:15.881Z,1.80
2022-12-12T04:38:37.401Z,1.80
2022-12-12T04:40:01.017Z,1.70
2022-12-12T04:41:22.792Z,1.70
2022-12-12T04:42:46.873Z,1.70
2022-12-12T04:44:08.326Z,1.60
2022-12-12T04:45:32.079Z,1.70
2022-12-12T04:46:54.826Z,1.70
2022-12-12T04:48:16.841Z,1.60
2022-12-12T04:49:37.721Z,1.50
2022-12-12T04:50:59.753Z,1.50
2022-12-12T04:52:22.897Z,1.40
2022-12-12T04:53:47.473Z,1.40
2022-12-12T04:55:11.296Z,1.40
2022-12-12T04:56:34.758Z,1.40
2022-12-12T04:57:56.353Z,1.40
2022-12-12T04:59:17.102Z,1.30
2022-12-12T05:00:41.401Z,1.30
2022-12-12T05:02:06.002Z,1.30
2022-12-12T05:03:33.154Z,1.30
2022-12-12T05:04:57.494Z,1.20
2022-12-12T05:06:21.424Z,1.20
2022-12-12T05:07:44.789Z,1.30
2022-12-12T05:09:05.350Z,1.30
2022-12-12T05:10:25.937Z,1.30
2022-12-12T05:11:47.881Z,1.30
2022-12-12T05:13:16.096Z,1.30
2022-12-12T05:14:36.555Z,1.40
2022-12-12T05:15:58.819Z,1.40
2022-12-12T05:17:24.980Z,1.50
2022-12-12T05:18:45.818Z,1.50
2022-12-12T05:20:07.462Z,1.50
2022-12-12T05:21:27.981Z,1.40
2022-12-12T05:22:49.591Z,1.50
2022-12-12T05:24:10.218Z,1.60
2022-12-12T05:25:31.111Z,1.50
2022-12-12T05:26:51.643Z,1.30
2022-12-12T05:28:12.406Z,1.30
2022-12-12T05:29:32.887Z,1.30
2022-12-12T05:30:53.444Z,1.30
2022-12-12T05:32:13.996Z,1.20
2022-12-12T05:33:34.443Z,1.20
2022-12-12T05:34:55.157Z,1.20
2022-12-12T05:36:16.194Z,1.20
2022-12-12T05:37:37.147Z,1.20
2022-12-12T05:38:59.125Z,1.20
2022-12-12T05:40:20.709Z,1.20
2022-12-12T05:41:41.358Z,1.30
2022-12-12T05:43:01.953Z,1.30
2022-12-12T05:44:22.766Z,1.40
2022-12-12T05:45:43.206Z,1.40
2022-12-12T05:47:04.084Z,1.50
2022-12-12T05:48:24.842Z,1.60
2022-12-12T05:49:45.737Z,1.50
2022-12-12T05:51:06.224Z,1.40
2022-12-12T05:52:27.242Z,1.40
2022-12-12T05:53:47.934Z,1.40
2022-12-12T05:55:10.179Z,1.30
2022-12-12T05:56:31.056Z,1.30
2022-12-12T05:57:51.421Z,1.30
2022-12-12T05:59:12.090Z,1.20
2022-12-12T06:00:32.512Z,1.20
2022-12-12T06:01:52.984Z,1.20
2022-12-12T06:03:13.390Z,1.20
2022-12-12T06:04:34.023Z,1.20
2022-12-12T06:05:54.863Z,1.20
2022-12-12T06:07:15.922Z,1.20
2022-12-12T06:08:36.279Z,1.20
2022-12-12T06:09:56.399Z,1.10
2022-12-12T06:11:18.206Z,1.00
2022-12-12T06:12:38.962Z,1.00
2022-12-12T06:13:59.716Z,1.00
2022-12-12T06:15:20.351Z,1.00
2022-12-12T06:16:41.041Z,1.00
2022-12-12T06:18:01.764Z,1.00
2022-12-12T06:19:22.322Z,1.00
2022-12-12T06:20:43.042Z,0.90
2022-12-12T06:22:03.749Z,0.90
2022-12-12T06:23:24.490Z,0.90
2022-12-12T06:24:45.174Z,1.00
2022-12-12T06:26:06.732Z,0.90
2022-12-12T06:27:28.983Z,1.00
2022-12-12T06:28:49.628Z,1.00
2022-12-12T06:30:11.209Z,1.10
2022-12-12T06:31:32.211Z,1.00
2022-12-12T06:32:52.912Z,1.00
2022-12-12T06:34:13.833Z,1.00
2022-12-12T06:35:35.033Z,0.90
2022-12-12T06:36:55.880Z,1.00
2022-12-12T06:38:16.479Z,1.00
2022-12-12T06:39:37.707Z,1.20
2022-12-12T06:40:58.597Z,1.10
2022-12-12T06:42:18.924Z,1.00
2022-12-12T06:43:41.373Z,1.00
2022-12-12T06:45:01.836Z,1.10
2022-12-12T06:46:25.011Z,1.10
2022-12-12T06:47:45.309Z,1.10
2022-12-12T06:49:05.914Z,1.00
2022-12-12T06:50:26.813Z,1.00
2022-12-12T06:51:47.583Z,1.00
2022-12-12T06:53:08.683Z,0.90
2022-12-12T06:54:29.168Z,0.90
2022-12-12T06:55:49.692Z,1.00
2022-12-12T06:57:10.325Z,1.10
2022-12-12T06:58:31.041Z,1.20
2022-12-12T06:59:52.987Z,1.10
2022-12-12T07:01:17.779Z,1.10
2022-12-12T07:02:38.380Z,1.00
2022-12-12T07:03:59.018Z,1.00
2022-12-12T07:05:20.027Z,0.90
2022-12-12T07:06:40.872Z,1.00
2022-12-12T07:08:01.817Z,1.00
2022-12-12T07:09:22.445Z,1.00
2022-12-12T07:10:43.232Z,1.00
2022-12-12T07:12:04.639Z,1.00
2022-12-12T07:13:25.190Z,1.10
2022-12-12T07:14:45.894Z,1.10
2022-12-12T07:16:08.268Z,1.10
2022-12-12T07:17:28.635Z,1.10
2022-12-12T07:18:49.328Z,1.00
2022-12-12T07:20:10.244Z,0.90
2022-12-12T07:21:30.930Z,0.90
2022-12-12T07:22:51.641Z,0.90
2022-12-12T07:24:12.174Z,0.80
2022-12-12T07:25:32.702Z,0.80
2022-12-12T07:26:53.436Z,0.90
2022-12-12T07:28:14.497Z,0.90
2022-12-12T07:29:35.040Z,0.90
2022-12-12T07:30:58.413Z,0.90
2022-12-12T07:32:20.523Z,0.90
2022-12-12T07:33:44.485Z,0.90
2022-12-12T07:35:05.722Z,0.80
2022-12-12T07:36:26.417Z,0.80
2022-12-12T07:37:47.063Z,0.80
2022-12-12T07:39:08.062Z,0.80
2022-12-12T07:40:29.134Z,0.80
2022-12-12T07:41:49.662Z,0.80
2022-12-12T07:43:10.076Z,0.80
2022-12-12T07:44:30.493Z,0.80
2022-12-12T07:45:51.326Z,0.80
2022-12-12T07:47:12.103Z,0.80
2022-12-12T07:48:34.067Z,0.80
2022-12-12T07:49:54.329Z,0.80
2022-12-12T07:51:15.413Z,0.70
2022-12-12T07:52:36.043Z,0.80
2022-12-12T07:53:56.658Z,0.70
2022-12-12T07:55:17.365Z,0.60
2022-12-12T07:56:38.366Z,0.60
2022-12-12T07:57:59.256Z,0.50
2022-12-12T07:59:19.562Z,0.60
2022-12-12T08:00:39.811Z,0.60
2022-12-12T08:02:00.573Z,0.50
2022-12-12T08:03:21.158Z,0.50
2022-12-12T08:04:43.450Z,0.60
2022-12-12T08:06:05.320Z,0.70
2022-12-12T08:07:25.668Z,0.70
2022-12-12T08:08:46.867Z,0.70
2022-12-12T08:10:08.037Z,0.60
2022-12-12T08:11:28.717Z,0.50
2022-12-12T08:12:49.215Z,0.50
2022-12-12T08:14:13.141Z,0.50
2022-12-12T08:15:34.579Z,0.50
2022-12-12T08:16:55.183Z,0.60
2022-12-12T08:18:15.739Z,0.60
2022-12-12T08:19:36.307Z,0.50
2022-12-12T08:20:58.207Z,0.50
2022-12-12T08:22:19.245Z,0.50
2022-12-12T08:23:42.569Z,0.50
2022-12-12T08:25:03.346Z,0.50
2022-12-12T08:26:23.920Z,0.60
2022-12-12T08:27:44.328Z,0.70
2022-12-12T08:29:05.411Z,0.70
2022-12-12T08:30:26.115Z,0.70
2022-12-12T08:31:46.686Z,0.60
2022-12-12T08:33:08.308Z,0.60
2022-12-12T08:34:29.055Z,0.60
2022-12-12T08:35:49.569Z,0.60
2022-12-12T08:37:11.641Z,0.60
2022-12-12T08:38:32.567Z,0.70
2022-12-12T08:39:55.743Z,0.70
2022-12-12T08:41:17.260Z,0.80
2022-12-12T08:42:37.644Z,0.70
2022-12-12T08:43:58.550Z,0.70
2022-12-12T08:45:19.170Z,0.70
2022-12-12T08:46:40.250Z,0.70
2022-12-12T08:48:00.764Z,0.70
2022-12-12T08:49:21.392Z,0.60
2022-12-12T08:50:43.688Z,0.60
2022-12-12T08:52:05.362Z,0.60
2022-12-12T08:53:27.937Z,0.50
2022-12-12T08:54:48.216Z,0.60
2022-12-12T08:56:08.671Z,0.60
2022-12-12T08:57:29.333Z,0.60
2022-12-12T08:58:50.192Z,0.70
2022-12-12T09:00:11.909Z,0.70
2022-12-12T09:01:32.726Z,0.60
2022-12-12T09:02:53.392Z,0.60
2022-12-12T09:04:14.629Z,0.60
2022-12-12T09:05:35.551Z,0.70
2022-12-12T09:06:56.030Z,0.70
2022-12-12T09:08:16.571Z,0.70
2022-12-12T09:09:38.451Z,0.70
2022-12-12T09:10:58.970Z,0.70
2022-12-12T09:12:19.673Z,0.80
2022-12-12T09:13:40.578Z,0.70
2022-12-12T09:15:00.988Z,0.80
2022-12-12T09:16:21.644Z,0.90
2022-12-12T09:17:42.260Z,1.00
2022-12-12T09:19:02.826Z,1.10
2022-12-12T09:20:23.637Z,1.00
2022-12-12T09:21:44.206Z,1.20
2022-12-12T09:23:04.943Z,1.20
2022-12-12T09:24:25.685Z,1.20
2022-12-12T09:25:47.644Z,1.20
2022-12-12T09:27:08.190Z,1.10
2022-12-12T09:28:29.397Z,1.20
2022-12-12T09:29:50.029Z,1.10
2022-12-12T09:31:12.151Z,1.20
2022-12-12T09:32:32.726Z,1.20
2022-12-12T09:33:53.856Z,1.10
2022-12-12T09:35:14.323Z,1.10
2022-12-12T09:36:35.417Z,1.20
2022-12-12T09:37:56.156Z,1.10
2022-12-12T09:39:16.954Z,1.10
2022-12-12T09:40:42.804Z,1.10
2022-12-12T09:42:11.589Z,1.10
2022-12-12T09:43:34.941Z,1.20
2022-12-12T09:44:58.866Z,1.20
2022-12-12T09:46:29.752Z,1.40
2022-12-12T09:47:53.950Z,1.50
2022-12-12T09:49:19.122Z,1.50
2022-12-12T09:50:44.265Z,1.50
2022-12-12T09:52:05.253Z,1.60
2022-12-12T09:53:29.032Z,1.60
2022-12-12T09:54:49.511Z,1.60
2022-12-12T09:56:14.138Z,1.40
2022-12-12T09:57:40.033Z,1.50
2022-12-12T09:59:05.399Z,1.50
2022-12-12T10:00:26.837Z,1.60
2022-12-12T10:01:56.285Z,1.40
2022-12-12T10:03:25.210Z,1.40
2022-12-12T10:04:54.077Z,1.40
2022-12-12T10:08:02.105Z,1.50
2022-12-12T10:09:45.599Z,1.40
2022-12-12T10:11:08.378Z,1.40
2022-12-12T10:12:29.514Z,1.50
2022-12-12T10:13:51.656Z,1.50
2022-12-12T10:15:23.487Z,1.60
2022-12-12T10:16:44.511Z,1.50
2022-12-12T10:18:08.477Z,1.60
2022-12-12T10:19:32.008Z,1.60
2022-12-12T10:20:55.303Z,1.70
2022-12-12T10:22:24.561Z,1.60
2022-12-12T10:23:47.697Z,1.60
2022-12-12T10:25:19.545Z,1.70
2022-12-12T10:26:40.002Z,1.80
2022-12-12T10:28:08.738Z,1.70
2022-12-12T10:29:35.459Z,1.70
2022-12-12T10:31:05.513Z,1.70
2022-12-12T10:32:36.928Z,1.70
2022-12-12T10:34:07.359Z,1.70
2022-12-12T10:35:31.593Z,1.80
2022-12-12T10:37:09.670Z,1.80
2022-12-12T10:38:39.736Z,1.80
2022-12-12T10:40:12.523Z,1.90
2022-12-12T10:41:40.092Z,1.90
2022-12-12T10:43:03.641Z,1.90
2022-12-12T10:44:44.146Z,1.80
2022-12-12T10:46:22.951Z,1.80
2022-12-12T10:47:43.952Z,1.90
2022-12-12T10:49:14.069Z,2.10
2022-12-12T10:50:37.368Z,2.10
2022-12-12T10:52:00.070Z,2.10
2022-12-12T10:53:21.625Z,2.20
2022-12-12T10:54:47.047Z,2.20
2022-12-12T10:56:10.118Z,2.10
2022-12-12T10:57:34.870Z,2.10
2022-12-12T10:58:56.883Z,2.20
2022-12-12T11:00:26.993Z,2.30
2022-12-12T11:02:13.161Z,2.20
2022-12-12T11:03:37.294Z,2.20
2022-12-12T11:05:00.238Z,2.10
2022-12-12T11:06:29.424Z,2.10
2022-12-12T11:07:59.807Z,2.10
2022-12-12T11:09:22.705Z,2.00
2022-12-12T11:10:44.065Z,2.00
2022-12-12T11:12:12.285Z,2.00
2022-12-12T11:13:39.789Z,2.10
2022-12-12T11:15:04.519Z,2.20
2022-12-12T11:16:28.668Z,2.30
2022-12-12T11:17:50.208Z,2.30
2022-12-12T11:19:21.788Z,2.40
2022-12-12T11:20:46.766Z,2.50
2022-12-12T11:22:07.493Z,2.50
2022-12-12T11:23:28.772Z,2.50
2022-12-12T11:24:50.539Z,2.50
2022-12-12T11:26:12.852Z,2.50
2022-12-12T11:27:35.749Z,2.50
2022-12-12T11:28:58.384Z,2.50
2022-12-12T11:30:24.131Z,2.50
2022-12-12T11:31:46.283Z,2.50
2022-12-12T11:33:07.670Z,2.60
2022-12-12T11:34:28.671Z,2.70
2022-12-12T11:35:54.088Z,2.70
2022-12-12T11:37:16.468Z,2.70
2022-12-12T11:38:39.240Z,2.60
2022-12-12T11:40:00.000Z,2.50
2022-12-12T11:41:20.866Z,2.60
2022-12-12T11:42:41.510Z,2.60
2022-12-12T11:44:02.238Z,2.70
2022-12-12T11:45:23.445Z,2.80
2022-12-12T11:46:44.167Z,2.60
2022-12-12T11:48:31.400Z,2.70
2022-12-12T11:49:54.289Z,2.70
2022-12-12T11:51:31.520Z,2.80
2022-12-12T11:52:56.885Z,2.90
2022-12-12T11:54:22.655Z,3.00
2022-12-12T11:55:50.105Z,3.00
2022-12-12T11:57:14.464Z,3.00
2022-12-12T11:58:38.269Z,3.10
2022-12-12T12:00:06.037Z,3.10
2022-12-12T12:01:32.808Z,3.10
2022-12-12T12:03:13.568Z,3.00
2022-12-12T12:04:52.905Z,3.20
2022-12-12T12:06:24.426Z,3.20
2022-12-12T12:07:57.612Z,3.20
2022-12-12T12:09:26.392Z,3.30
2022-12-12T12:10:55.726Z,3.30
2022-12-12T12:12:18.195Z,3.30
2022-12-12T12:13:53.422Z,3.30
2022-12-12T12:15:30.199Z,3.30
2022-12-12T12:16:56.386Z,3.50
2022-12-12T12:18:28.409Z,3.60
2022-12-12T12:19:57.089Z,3.70
2022-12-12T12:21:26.401Z,3.80
2022-12-12T12:22:53.329Z,3.80
2022-12-12T12:24:39.899Z,3.80
2022-12-12T12:26:02.794Z,3.90
2022-12-12T12:27:27.922Z,4.10
2022-12-12T12:29:31.019Z,4.30
2022-12-12T12:30:57.797Z,4.30
2022-12-12T12:32:28.272Z,4.30
2022-12-12T12:33:58.591Z,4.40
2022-12-12T12:35:28.281Z,4.60
2022-12-12T12:36:59.517Z,4.60
2022-12-12T12:38:26.242Z,4.70
2022-12-12T12:40:02.444Z,4.70
2022-12-12T12:41:41.526Z,4.90
2022-12-12T12:43:17.036Z,5.00
2022-12-12T12:44:44.371Z,5.10
2022-12-12T12:46:12.467Z,5.10
2022-12-12T12:47:37.420Z,5.20
2022-12-12T12:49:01.276Z,5.20
2022-12-12T12:50:25.153Z,5.40
2022-12-12T12:51:50.530Z,5.40
2022-12-12T12:53:22.272Z,5.20
2022-12-12T12:54:45.925Z,5.20
2022-12-12T12:56:15.304Z,5.40
2022-12-12T12:57:39.258Z,5.50
2022-12-12T12:59:02.354Z,5.50
2022-12-12T13:00:24.753Z,5.50
2022-12-12T13:01:46.764Z,5.50
2022-12-12T13:03:11.898Z,5.70
2022-12-12T13:04:39.812Z,5.90
2022-12-12T13:06:03.311Z,5.90
2022-12-12T13:07:28.969Z,5.80
2022-12-12T13:08:56.855Z,5.90
2022-12-12T13:10:21.215Z,6.10
2022-12-12T13:11:45.109Z,6.10
2022-12-12T13:13:12.358Z,5.90
2022-12-12T13:14:58.864Z,5.90
2022-12-12T13:16:21.302Z,6.20
2022-12-12T13:17:47.160Z,6.20
2022-12-12T13:19:13.103Z,6.30
2022-12-12T13:20:35.655Z,6.30
2022-12-12T13:22:06.609Z,6.40
2022-12-12T13:23:37.812Z,6.30
2022-12-12T13:25:03.843Z,6.40
2022-12-12T13:26:27.760Z,6.30
2022-12-12T13:27:52.435Z,6.40
2022-12-12T13:29:28.107Z,6.40
2022-12-12T13:31:01.706Z,6.50
2022-12-12T13:33:05.702Z,6.40
2022-12-12T13:34:27.534Z,6.30
2022-12-12T13:35:48.076Z,6.40
2022-12-12T13:37:14.142Z,6.40
2022-12-12T13:38:35.139Z,6.40
2022-12-12T13:39:59.667Z,6.40
2022-12-12T13:41:20.225Z,6.40
2022-12-12T13:42:52.738Z,6.50
2022-12-12T13:44:38.662Z,6.70
2022-12-12T13:45:59.227Z,6.60
2022-12-12T13:47:56.749Z,6.60
2022-12-12T13:49:24.303Z,6.60
2022-12-12T13:50:45.061Z,6.50
2022-12-12T13:52:22.307Z,6.50
2022-12-12T13:53:42.600Z,6.50
2022-12-12T13:55:21.823Z,6.30
2022-12-12T13:56:43.370Z,6.30
2022-12-12T13:58:06.964Z,6.30
2022-12-12T13:59:30.606Z,6.50
2022-12-12T14:01:32.259Z,6.50
2022-12-12T14:03:05.903Z,6.40
2022-12-12T14:04:29.194Z,6.30
2022-12-12T14:05:50.966Z,6.30
2022-12-12T14:07:16.565Z,6.30
2022-12-12T14:08:47.581Z,6.40
2022-12-12T14:10:21.873Z,6.70
2022-12-12T14:11:42.377Z,6.80
2022-12-12T14:13:26.369Z,6.70
2022-12-12T14:14:52.116Z,6.30
2022-12-12T14:16:22.035Z,6.10
2022-12-12T14:17:51.656Z,6.10
2022-12-12T14:19:29.881Z,6.20
2022-12-12T14:20:53.912Z,6.10
2022-12-12T14:22:26.397Z,6.10
2022-12-12T14:23:49.741Z,6.30
2022-12-12T14:25:19.352Z,6.50
2022-12-12T14:26:50.179Z,6.30
2022-12-12T14:28:22.551Z,5.90
2022-12-12T14:29:43.871Z,6.10
2022-12-12T14:31:14.307Z,6.10
2022-12-12T14:32:40.759Z,5.90
2022-12-12T14:34:12.990Z,5.60
2022-12-12T14:35:41.874Z,5.80
2022-12-12T14:37:16.529Z,6.20
2022-12-12T14:38:40.387Z,6.10
2022-12-12T14:40:08.812Z,6.10
2022-12-12T14:41:35.106Z,5.90
2022-12-12T14:43:19.174Z,5.60
2022-12-12T14:44:47.889Z,5.30
2022-12-12T14:46:15.073Z,5.10
2022-12-12T14:47:35.408Z,5.10
2022-12-12T14:49:01.780Z,5.00
2022-12-12T14:50:22.153Z,4.80
2022-12-12T14:51:44.551Z,4.70
2022-12-12T14:53:14.090Z,4.60
2022-12-12T14:54:36.189Z,4.60
2022-12-12T14:56:00.947Z,4.60
2022-12-12T14:57:23.357Z,4.50
2022-12-12T14:58:47.160Z,4.40
2022-12-12T15:00:16.739Z,4.50
2022-12-12T15:01:40.801Z,4.50
2022-12-12T15:03:01.050Z,4.30
2022-12-12T15:04:23.544Z,4.30
2022-12-12T15:05:44.272Z,4.30
2022-12-12T15:07:06.179Z,4.20
2022-12-12T15:08:26.771Z,4.20
2022-12-12T15:09:48.773Z,4.10
2022-12-12T15:11:14.798Z,4.30
2022-12-12T15:12:35.839Z,4.30
2022-12-12T15:13:58.015Z,4.20
2022-12-12T15:15:23.703Z,4.20
2022-12-12T15:16:48.621Z,4.20
2022-12-12T15:18:10.052Z,4.00
2022-12-12T15:19:33.728Z,3.90
2022-12-12T15:20:56.584Z,3.80
2022-12-12T15:22:22.633Z,3.80
2022-12-12T15:23:43.575Z,3.70
2022-12-12T15:25:14.718Z,3.70
2022-12-12T15:26:36.713Z,3.60
2022-12-12T15:27:58.004Z,3.60
2022-12-12T15:29:20.516Z,3.60
2022-12-12T15:30:43.186Z,3.50
2022-12-12T15:32:06.081Z,3.50
2022-12-12T15:33:27.449Z,3.50
2022-12-12T15:34:48.969Z,3.70
2022-12-12T15:36:18.319Z,3.80
2022-12-12T15:37:40.514Z,3.80
2022-12-12T15:39:13.378Z,3.80
2022-12-12T15:40:34.450Z,3.70
2022-12-12T15:41:56.514Z,3.70
2022-12-12T15:43:18.880Z,3.50
2022-12-12T15:44:39.628Z,3.40
2022-12-12T15:46:01.948Z,3.40
2022-12-12T15:47:22.626Z,3.30
2022-12-12T15:48:43.211Z,3.20
2022-12-12T15:50:09.963Z,3.20
2022-12-12T15:51:31.184Z,3.10
2022-12-12T15:53:05.981Z,3.10
2022-12-12T15:54:26.803Z,3.10
2022-12-12T15:55:53.692Z,3.10
2022-12-12T15:57:17.166Z,3.10
2022-12-12T15:58:40.265Z,3.10
2022-12-12T16:00:04.489Z,3.10
2022-12-12T16:01:27.486Z,3.10
2022-12-12T16:02:58.238Z,3.00
2022-12-12T16:04:23.818Z,2.80
2022-12-12T16:05:44.808Z,3.00
2022-12-12T16:07:15.149Z,2.90
2022-12-12T16:08:45.677Z,3.00
2022-12-12T16:10:21.809Z,3.00
2022-12-12T16:11:44.786Z,3.10
2022-12-12T16:13:23.504Z,3.10
2022-12-12T16:14:44.009Z,3.10
2022-12-12T16:16:36.907Z,3.20
2022-12-12T16:18:02.832Z,3.20
2022-12-12T16:19:36.981Z,3.10
2022-12-12T16:20:57.687Z,3.20
2022-12-12T16:22:31.233Z,3.00
2022-12-12T16:23:51.864Z,3.10
2022-12-12T16:25:17.243Z,3.10
2022-12-12T16:26:37.766Z,3.10
2022-12-12T16:28:00.691Z,3.00
2022-12-12T16:29:22.745Z,2.80
2022-12-12T16:30:44.637Z,3.00
2022-12-12T16:32:05.643Z,2.90
2022-12-12T16:33:31.087Z,2.80
2022-12-12T16:34:51.694Z,2.80
2022-12-12T16:36:16.397Z,2.90
2022-12-12T16:37:36.901Z,3.00
2022-12-12T16:38:57.616Z,2.90
2022-12-12T16:40:19.484Z,3.10
2022-12-12T16:41:40.168Z,3.00
2022-12-12T16:43:07.725Z,3.00
2022-12-12T16:44:31.260Z,2.90
2022-12-12T16:45:53.530Z,2.90
2022-12-12T16:47:18.791Z,2.70
2022-12-12T16:48:39.415Z,2.70
2022-12-12T16:50:00.193Z,2.60
2022-12-12T16:51:25.930Z,2.60
2022-12-12T16:52:46.437Z,2.60
2022-12-12T16:54:15.316Z,2.50
2022-12-12T16:55:36.861Z,2.50
2022-12-12T16:56:57.621Z,2.40
2022-12-12T16:58:18.839Z,2.50
2022-12-12T16:59:40.684Z,2.60
2022-12-12T17:01:01.284Z,2.50
2022-12-12T17:02:23.872Z,2.50
2022-12-12T17:03:44.745Z,2.40
2022-12-12T17:05:05.940Z,2.40
2022-12-12T17:06:26.544Z,2.40
2022-12-12T17:07:47.415Z,2.30
2022-12-12T17:09:07.853Z,2.30
2022-12-12T17:10:29.738Z,2.20
2022-12-12T17:11:50.357Z,2.30
2022-12-12T17:13:14.411Z,2.20
2022-12-12T17:14:35.235Z,2.20
2022-12-12T17:15:57.176Z,2.20
2022-12-12T17:17:17.757Z,2.20
2022-12-12T17:18:38.678Z,2.10
2022-12-12T17:19:59.250Z,2.10
2022-12-12T17:21:19.683Z,2.10
2022-12-12T17:22:40.375Z,2.00
2022-12-12T17:24:01.389Z,2.00
2022-12-12T17:25:22.137Z,1.90
2022-12-12T17:26:42.817Z,2.00
2022-12-12T17:28:03.551Z,2.10
2022-12-12T17:29:24.224Z,2.10
2022-12-12T17:30:45.258Z,2.10
2022-12-12T17:32:07.441Z,2.10
2022-12-12T17:33:28.785Z,2.10
2022-12-12T17:34:49.182Z,2.00
2022-12-12T17:36:13.216Z,2.10
2022-12-12T17:37:34.009Z,2.00
2022-12-12T17:38:54.620Z,2.00
2022-12-12T17:40:15.924Z,2.00
2022-12-12T17:41:36.528Z,2.10
2022-12-12T17:42:57.119Z,2.10
2022-12-12T17:44:18.009Z,2.00
2022-12-12T17:45:38.719Z,2.00
2022-12-12T17:46:59.501Z,2.00
2022-12-12T17:48:29.365Z,1.90
2022-12-12T17:49:49.998Z,1.90
2022-12-12T17:51:12.291Z,1.80
2022-12-12T17:52:32.962Z,1.80
2022-12-12T17:53:54.720Z,1.80
2022-12-12T17:55:54.014Z,1.80
2022-12-12T17:56:55.753Z,1.80
2022-12-12T17:58:16.787Z,1.70
2022-12-12T17:59:37.949Z,1.70
2022-12-12T18:00:59.955Z,1.80
2022-12-12T18:02:20.584Z,1.80
2022-12-12T18:03:42.978Z,1.90
2022-12-12T18:05:03.831Z,2.00
2022-12-12T18:06:25.098Z,1.90
2022-12-12T18:07:45.384Z,1.90
2022-12-12T18:09:06.105Z,1.80
2022-12-12T18:10:26.819Z,1.90
2022-12-12T18:11:47.408Z,2.00
2022-12-12T18:13:08.339Z,2.00
2022-12-12T18:14:29.251Z,1.90
2022-12-12T18:15:54.173Z,2.00
2022-12-12T18:17:14.513Z,2.10
2022-12-12T18:18:35.400Z,2.20
2022-12-12T18:19:57.614Z,2.20
2022-12-12T18:21:51.749Z,2.20
2022-12-12T18:23:01.322Z,2.30
2022-12-12T18:24:24.164Z,2.30
2022-12-12T18:25:44.907Z,2.20
2022-12-12T18:27:05.530Z,2.10
2022-12-12T18:28:26.081Z,2.10
2022-12-12T18:29:46.710Z,2.20
2022-12-12T18:31:07.589Z,2.30
2022-12-12T18:32:28.119Z,2.30
2022-12-12T18:33:48.478Z,2.30
2022-12-12T18:35:10.686Z,2.30
2022-12-12T18:36:31.991Z,2.20
2022-12-12T18:37:52.576Z,2.20
2022-12-12T18:39:12.893Z,2.30
2022-12-12T18:40:33.784Z,2.30
2022-12-12T18:41:54.528Z,2.30
2022-12-12T18:43:15.179Z,2.30